sensor_id;sensor_type;location;lat;lon;timestamp;pressure;altitude;pressure_sealevel;temperature;humidity
15670;BME280;18524;45.190;5.732;2022-07-21T00:02:55;99493.47;;;28.96;43.30
15670;BME280;18524;45.190;5.732;2022-07-21T00:07:45;99498.06;;;28.95;43.34
15670;BME280;18524;45.190;5.732;2022-07-21T00:12:36;99498.41;;;28.99;43.49
15670;BME280;18524;45.190;5.732;2022-07-21T00:17:26;99509.91;;;28.94;43.12
15670;BME280;18524;45.190;5.732;2022-07-21T00:22:17;99504.41;;;28.89;43.64
15670;BME280;18524;45.190;5.732;2022-07-21T00:27:07;99499.47;;;28.86;44.35
15670;BME280;18524;45.190;5.732;2022-07-21T00:31:58;99498.88;;;28.84;44.12
15670;BME280;18524;45.190;5.732;2022-07-21T00:36:50;99503.06;;;28.80;43.32
15670;BME280;18524;45.190;5.732;2022-07-21T00:41:40;99494.06;;;28.86;43.50
15670;BME280;18524;45.190;5.732;2022-07-21T00:46:31;99505.09;;;28.85;43.92
15670;BME280;18524;45.190;5.732;2022-07-21T00:51:21;99488.53;;;28.81;43.67
15670;BME280;18524;45.190;5.732;2022-07-21T00:56:12;99501.91;;;28.76;43.94
15670;BME280;18524;45.190;5.732;2022-07-21T01:01:02;99501.91;;;28.76;43.89
15670;BME280;18524;45.190;5.732;2022-07-21T01:05:54;99501.44;;;28.79;43.98
15670;BME280;18524;45.190;5.732;2022-07-21T01:10:44;99506.00;;;28.67;44.70
15670;BME280;18524;45.190;5.732;2022-07-21T01:15:34;99494.84;;;28.63;44.71
15670;BME280;18524;45.190;5.732;2022-07-21T01:20:25;99499.19;;;28.64;45.22
15670;BME280;18524;45.190;5.732;2022-07-21T01:25:17;99494.94;;;28.57;44.72
15670;BME280;18524;45.190;5.732;2022-07-21T01:30:09;99493.88;;;28.58;44.70
15670;BME280;18524;45.190;5.732;2022-07-21T01:35:00;99500.06;;;28.47;44.81
15670;BME280;18524;45.190;5.732;2022-07-21T01:39:50;99495.59;;;28.41;45.08
15670;BME280;18524;45.190;5.732;2022-07-21T01:45:00;99486.91;;;28.27;45.00
15670;BME280;18524;45.190;5.732;2022-07-21T01:49:50;99489.03;;;28.18;45.33
15670;BME280;18524;45.190;5.732;2022-07-21T01:54:41;99487.84;;;28.14;45.66
15670;BME280;18524;45.190;5.732;2022-07-21T01:59:31;99482.22;;;28.16;45.48
15670;BME280;18524;45.190;5.732;2022-07-21T02:04:21;99483.97;;;28.10;45.61
15670;BME280;18524;45.190;5.732;2022-07-21T02:09:12;99482.94;;;28.11;45.48
15670;BME280;18524;45.190;5.732;2022-07-21T02:14:02;99485.94;;;28.03;45.62
15670;BME280;18524;45.190;5.732;2022-07-21T02:18:53;99484.53;;;28.00;46.81
15670;BME280;18524;45.190;5.732;2022-07-21T02:23:43;99484.53;;;28.00;46.33
15670;BME280;18524;45.190;5.732;2022-07-21T02:28:33;99485.81;;;27.98;46.23
15670;BME280;18524;45.190;5.732;2022-07-21T02:33:24;99479.13;;;28.00;45.69
15670;BME280;18524;45.190;5.732;2022-07-21T02:38:14;99486.28;;;27.95;45.83
15670;BME280;18524;45.190;5.732;2022-07-21T02:43:06;99484.31;;;27.84;46.17
15670;BME280;18524;45.190;5.732;2022-07-21T02:48:03;99482.69;;;27.83;46.25
15670;BME280;18524;45.190;5.732;2022-07-21T02:52:55;99486.50;;;27.75;46.31
15670;BME280;18524;45.190;5.732;2022-07-21T02:57:46;99479.84;;;27.78;46.27
15670;BME280;18524;45.190;5.732;2022-07-21T03:02:36;99479.72;;;27.73;46.76
15670;BME280;18524;45.190;5.732;2022-07-21T03:07:27;99468.56;;;27.69;46.87
15670;BME280;18524;45.190;5.732;2022-07-21T03:12:18;99476.34;;;27.59;46.82
15670;BME280;18524;45.190;5.732;2022-07-21T03:17:08;99478.06;;;27.53;46.84
15670;BME280;18524;45.190;5.732;2022-07-21T03:21:58;99485.41;;;27.64;47.81
15670;BME280;18524;45.190;5.732;2022-07-21T03:26:49;99491.09;;;27.56;46.47
15670;BME280;18524;45.190;5.732;2022-07-21T03:31:39;99496.69;;;27.55;47.08
15670;BME280;18524;45.190;5.732;2022-07-21T03:36:30;99493.41;;;27.53;46.36
15670;BME280;18524;45.190;5.732;2022-07-21T03:41:20;99497.16;;;27.52;46.56
15670;BME280;18524;45.190;5.732;2022-07-21T03:46:10;99502.72;;;27.50;46.98
15670;BME280;18524;45.190;5.732;2022-07-21T03:51:01;99507.94;;;27.52;46.21
15670;BME280;18524;45.190;5.732;2022-07-21T03:55:51;99509.34;;;27.54;47.25
15670;BME280;18524;45.190;5.732;2022-07-21T04:00:43;99506.28;;;27.51;46.20
15670;BME280;18524;45.190;5.732;2022-07-21T04:05:35;99510.22;;;27.48;46.01
15670;BME280;18524;45.190;5.732;2022-07-21T04:10:28;99507.38;;;27.43;46.31
15670;BME280;18524;45.190;5.732;2022-07-21T04:15:19;99512.47;;;27.33;46.55
15670;BME280;18524;45.190;5.732;2022-07-21T04:20:10;99511.13;;;27.24;46.78
15670;BME280;18524;45.190;5.732;2022-07-21T04:25:03;99510.06;;;27.25;46.58
15670;BME280;18524;45.190;5.732;2022-07-21T04:29:54;99506.94;;;27.28;46.59
15670;BME280;18524;45.190;5.732;2022-07-21T04:34:44;99508.56;;;27.29;47.05
15670;BME280;18524;45.190;5.732;2022-07-21T04:39:35;99508.34;;;27.30;47.07
15670;BME280;18524;45.190;5.732;2022-07-21T04:44:25;99504.38;;;27.33;47.42
15670;BME280;18524;45.190;5.732;2022-07-21T04:49:16;99506.03;;;27.34;47.98
15670;BME280;18524;45.190;5.732;2022-07-21T04:54:07;99509.16;;;27.31;48.12
15670;BME280;18524;45.190;5.732;2022-07-21T04:58:58;99505.66;;;27.49;47.68
15670;BME280;18524;45.190;5.732;2022-07-21T05:03:48;99512.38;;;27.64;47.66
15670;BME280;18524;45.190;5.732;2022-07-21T05:08:39;99508.81;;;27.82;46.82
15670;BME280;18524;45.190;5.732;2022-07-21T05:13:29;99503.78;;;28.04;46.46
15670;BME280;18524;45.190;5.732;2022-07-21T05:18:19;99505.81;;;28.20;46.38
15670;BME280;18524;45.190;5.732;2022-07-21T05:23:10;99516.97;;;28.42;44.72
15670;BME280;18524;45.190;5.732;2022-07-21T05:28:01;99510.88;;;28.47;44.17
15670;BME280;18524;45.190;5.732;2022-07-21T05:32:51;99519.53;;;28.90;43.78
15670;BME280;18524;45.190;5.732;2022-07-21T05:37:42;99519.22;;;29.22;42.95
15670;BME280;18524;45.190;5.732;2022-07-21T05:42:32;99516.50;;;29.57;42.41
15670;BME280;18524;45.190;5.732;2022-07-21T05:47:23;99517.09;;;29.99;41.46
15670;BME280;18524;45.190;5.732;2022-07-21T05:52:13;99513.59;;;30.27;40.60
15670;BME280;18524;45.190;5.732;2022-07-21T05:57:04;99523.75;;;30.48;39.96
15670;BME280;18524;45.190;5.732;2022-07-21T06:01:54;99531.66;;;30.84;39.17
15670;BME280;18524;45.190;5.732;2022-07-21T06:06:44;99534.84;;;31.14;38.67
15670;BME280;18524;45.190;5.732;2022-07-21T06:11:35;99544.66;;;31.32;38.18
15670;BME280;18524;45.190;5.732;2022-07-21T06:16:25;99542.13;;;31.64;37.38
15670;BME280;18524;45.190;5.732;2022-07-21T06:21:16;99537.00;;;31.89;36.83
15670;BME280;18524;45.190;5.732;2022-07-21T06:26:08;99538.44;;;32.19;36.21
15670;BME280;18524;45.190;5.732;2022-07-21T06:30:58;99552.03;;;32.41;35.92
15670;BME280;18524;45.190;5.732;2022-07-21T06:35:49;99556.56;;;32.62;35.48
15670;BME280;18524;45.190;5.732;2022-07-21T06:40:40;99562.34;;;32.71;35.17
15670;BME280;18524;45.190;5.732;2022-07-21T06:45:30;99562.59;;;32.96;34.92
15670;BME280;18524;45.190;5.732;2022-07-21T06:50:21;99569.44;;;33.36;34.22
15670;BME280;18524;45.190;5.732;2022-07-21T06:55:11;99569.56;;;33.56;33.78
15670;BME280;18524;45.190;5.732;2022-07-21T07:00:04;99570.75;;;33.80;33.68
15670;BME280;18524;45.190;5.732;2022-07-21T07:04:55;99571.97;;;34.00;33.13
15670;BME280;18524;45.190;5.732;2022-07-21T07:09:45;99569.03;;;34.11;32.58
15670;BME280;18524;45.190;5.732;2022-07-21T07:14:36;99565.28;;;34.28;32.48
15670;BME280;18524;45.190;5.732;2022-07-21T07:19:27;99566.69;;;34.45;32.39
15670;BME280;18524;45.190;5.732;2022-07-21T07:24:18;99561.84;;;34.88;31.26
15670;BME280;18524;45.190;5.732;2022-07-21T07:29:08;99573.03;;;35.02;30.86
15670;BME280;18524;45.190;5.732;2022-07-21T07:33:59;99566.19;;;35.25;30.49
15670;BME280;18524;45.190;5.732;2022-07-21T07:38:50;99564.00;;;35.42;30.30
15670;BME280;18524;45.190;5.732;2022-07-21T07:43:41;99550.84;;;35.64;29.92
15670;BME280;18524;45.190;5.732;2022-07-21T07:48:32;99542.84;;;35.93;29.77
15670;BME280;18524;45.190;5.732;2022-07-21T07:53:24;99546.25;;;36.19;28.89
15670;BME280;18524;45.190;5.732;2022-07-21T07:58:14;99538.28;;;36.28;28.74
15670;BME280;18524;45.190;5.732;2022-07-21T08:03:06;99536.41;;;36.23;28.20
15670;BME280;18524;45.190;5.732;2022-07-21T08:07:56;99529.63;;;36.60;27.95
15670;BME280;18524;45.190;5.732;2022-07-21T08:12:47;99525.09;;;36.79;27.63
15670;BME280;18524;45.190;5.732;2022-07-21T08:17:37;99524.28;;;36.45;27.29
15670;BME280;18524;45.190;5.732;2022-07-21T08:22:27;99531.72;;;36.68;26.86
15670;BME280;18524;45.190;5.732;2022-07-21T08:27:18;99524.72;;;36.57;27.41
15670;BME280;18524;45.190;5.732;2022-07-21T08:32:09;99513.34;;;36.79;27.02
15670;BME280;18524;45.190;5.732;2022-07-21T08:37:00;99513.56;;;36.87;26.50
15670;BME280;18524;45.190;5.732;2022-07-21T08:41:51;99508.94;;;37.12;26.15
15670;BME280;18524;45.190;5.732;2022-07-21T08:46:42;99505.81;;;37.23;26.52
15670;BME280;18524;45.190;5.732;2022-07-21T08:51:33;99501.25;;;37.43;26.05
15670;BME280;18524;45.190;5.732;2022-07-21T08:56:24;99496.44;;;37.53;26.05
15670;BME280;18524;45.190;5.732;2022-07-21T09:01:14;99490.88;;;37.64;25.75
15670;BME280;18524;45.190;5.732;2022-07-21T09:06:08;99491.38;;;37.66;25.62
15670;BME280;18524;45.190;5.732;2022-07-21T09:11:19;99493.59;;;37.88;25.53
15670;BME280;18524;45.190;5.732;2022-07-21T09:16:10;99487.91;;;38.03;25.47
15670;BME280;18524;45.190;5.732;2022-07-21T09:21:00;99478.13;;;38.15;25.46
15670;BME280;18524;45.190;5.732;2022-07-21T09:25:54;99478.97;;;38.16;24.86
15670;BME280;18524;45.190;5.732;2022-07-21T09:36:12;99462.25;;;38.50;24.84
15670;BME280;18524;45.190;5.732;2022-07-21T09:41:10;99458.91;;;38.72;24.61
15670;BME280;18524;45.190;5.732;2022-07-21T09:46:04;99454.03;;;38.83;24.55
15670;BME280;18524;45.190;5.732;2022-07-21T09:50:55;99451.56;;;39.14;24.18
15670;BME280;18524;45.190;5.732;2022-07-21T09:55:45;99445.06;;;39.10;24.09
15670;BME280;18524;45.190;5.732;2022-07-21T10:00:36;99436.19;;;39.26;23.98
15670;BME280;18524;45.190;5.732;2022-07-21T10:05:26;99438.84;;;39.59;24.07
15670;BME280;18524;45.190;5.732;2022-07-21T10:10:17;99428.63;;;39.73;23.72
15670;BME280;18524;45.190;5.732;2022-07-21T10:15:08;99428.00;;;39.76;23.54
15670;BME280;18524;45.190;5.732;2022-07-21T10:25:05;99417.41;;;40.19;23.11
15670;BME280;18524;45.190;5.732;2022-07-21T10:30:02;99412.47;;;40.30;23.26
15670;BME280;18524;45.190;5.732;2022-07-21T10:34:56;99407.09;;;40.47;22.64
15670;BME280;18524;45.190;5.732;2022-07-21T10:39:47;99394.94;;;40.71;22.74
15670;BME280;18524;45.190;5.732;2022-07-21T10:44:39;99391.34;;;40.92;22.36
15670;BME280;18524;45.190;5.732;2022-07-21T10:49:59;99385.28;;;40.82;21.84
15670;BME280;18524;45.190;5.732;2022-07-21T11:00:43;99374.28;;;40.82;22.58
15670;BME280;18524;45.190;5.732;2022-07-21T11:05:33;99362.41;;;41.12;22.15
15670;BME280;18524;45.190;5.732;2022-07-21T11:10:25;99364.09;;;41.31;21.76
15670;BME280;18524;45.190;5.732;2022-07-21T11:15:45;99363.44;;;41.25;21.69
15670;BME280;18524;45.190;5.732;2022-07-21T11:20:36;99348.72;;;41.56;21.72
15670;BME280;18524;45.190;5.732;2022-07-21T11:25:29;99346.31;;;41.89;21.45
15670;BME280;18524;45.190;5.732;2022-07-21T11:30:19;99344.72;;;41.79;21.25
15670;BME280;18524;45.190;5.732;2022-07-21T11:35:12;99329.75;;;41.97;21.53
15670;BME280;18524;45.190;5.732;2022-07-21T11:44:57;99317.78;;;42.10;21.02
15670;BME280;18524;45.190;5.732;2022-07-21T11:49:52;99306.75;;;42.10;21.33
15670;BME280;18524;45.190;5.732;2022-07-21T11:54:44;99308.97;;;42.26;20.77
15670;BME280;18524;45.190;5.732;2022-07-21T11:59:37;99294.19;;;42.30;20.88
15670;BME280;18524;45.190;5.732;2022-07-21T12:04:35;99284.03;;;42.13;21.20
15670;BME280;18524;45.190;5.732;2022-07-21T12:09:25;99284.75;;;42.31;20.74
15670;BME280;18524;45.190;5.732;2022-07-21T12:14:16;99276.75;;;42.56;20.78
15670;BME280;18524;45.190;5.732;2022-07-21T12:19:11;99265.94;;;42.33;20.66
15670;BME280;18524;45.190;5.732;2022-07-21T12:24:02;99264.16;;;42.75;20.38
15670;BME280;18524;45.190;5.732;2022-07-21T12:28:52;99252.22;;;42.92;20.61
15670;BME280;18524;45.190;5.732;2022-07-21T12:33:44;99246.75;;;43.04;20.25
15670;BME280;18524;45.190;5.732;2022-07-21T12:38:44;99234.97;;;42.66;20.51
15670;BME280;18524;45.190;5.732;2022-07-21T12:43:36;99238.50;;;42.75;20.28
15670;BME280;18524;45.190;5.732;2022-07-21T12:48:32;99234.97;;;42.66;20.30
15670;BME280;18524;45.190;5.732;2022-07-21T12:53:23;99230.22;;;42.45;20.12
15670;BME280;18524;45.190;5.732;2022-07-21T12:58:13;99227.56;;;42.87;20.29
15670;BME280;18524;45.190;5.732;2022-07-21T13:03:03;99224.38;;;42.77;20.27
15670;BME280;18524;45.190;5.732;2022-07-21T13:07:54;99201.97;;;42.78;19.70
15670;BME280;18524;45.190;5.732;2022-07-21T13:12:44;99200.69;;;42.46;19.80
15670;BME280;18524;45.190;5.732;2022-07-21T13:17:35;99212.88;;;42.07;20.00
15670;BME280;18524;45.190;5.732;2022-07-21T13:22:25;99210.59;;;42.09;19.90
15670;BME280;18524;45.190;5.732;2022-07-21T13:27:16;99194.66;;;41.50;20.72
15670;BME280;18524;45.190;5.732;2022-07-21T13:32:07;99183.78;;;41.54;20.46
15670;BME280;18524;45.190;5.732;2022-07-21T13:36:57;99194.13;;;41.57;20.33
15670;BME280;18524;45.190;5.732;2022-07-21T13:41:47;99175.59;;;41.28;20.26
15670;BME280;18524;45.190;5.732;2022-07-21T13:46:38;99165.66;;;41.18;20.43
15670;BME280;18524;45.190;5.732;2022-07-21T13:51:28;99163.09;;;41.13;20.19
15670;BME280;18524;45.190;5.732;2022-07-21T13:56:19;99166.66;;;40.31;20.77
15670;BME280;18524;45.190;5.732;2022-07-21T14:01:12;99159.88;;;39.89;21.28
15670;BME280;18524;45.190;5.732;2022-07-21T14:06:03;99141.03;;;39.20;22.04
15670;BME280;18524;45.190;5.732;2022-07-21T14:10:53;99149.03;;;39.08;22.30
15670;BME280;18524;45.190;5.732;2022-07-21T14:15:44;99153.75;;;39.02;22.00
15670;BME280;18524;45.190;5.732;2022-07-21T14:20:34;99142.78;;;38.80;21.55
15670;BME280;18524;45.190;5.732;2022-07-21T14:25:25;99141.63;;;38.45;21.84
15670;BME280;18524;45.190;5.732;2022-07-21T14:30:19;99135.94;;;38.00;21.70
15670;BME280;18524;45.190;5.732;2022-07-21T14:35:10;99144.44;;;37.85;21.64
15670;BME280;18524;45.190;5.732;2022-07-21T14:40:02;99139.94;;;37.62;21.98
15670;BME280;18524;45.190;5.732;2022-07-21T14:44:53;99134.97;;;37.31;21.80
15670;BME280;18524;45.190;5.732;2022-07-21T14:49:43;99123.72;;;37.14;23.11
15670;BME280;18524;45.190;5.732;2022-07-21T14:54:34;99126.97;;;37.16;21.96
15670;BME280;18524;45.190;5.732;2022-07-21T14:59:25;99120.81;;;36.91;21.96
15670;BME280;18524;45.190;5.732;2022-07-21T15:04:15;99119.47;;;36.70;21.79
15670;BME280;18524;45.190;5.732;2022-07-21T15:09:06;99120.22;;;36.57;23.17
15670;BME280;18524;45.190;5.732;2022-07-21T15:13:57;99124.19;;;36.46;22.77
15670;BME280;18524;45.190;5.732;2022-07-21T15:18:47;99111.06;;;36.24;22.41
15670;BME280;18524;45.190;5.732;2022-07-21T15:23:38;99109.66;;;36.26;21.94
15670;BME280;18524;45.190;5.732;2022-07-21T15:28:28;99101.72;;;36.06;22.82
15670;BME280;18524;45.190;5.732;2022-07-21T15:33:19;99105.53;;;36.05;22.71
15670;BME280;18524;45.190;5.732;2022-07-21T15:38:09;99105.22;;;35.88;22.57
15670;BME280;18524;45.190;5.732;2022-07-21T15:42:59;99095.44;;;35.82;22.31
15670;BME280;18524;45.190;5.732;2022-07-21T15:47:50;99098.56;;;35.70;22.34
15670;BME280;18524;45.190;5.732;2022-07-21T15:52:41;99095.06;;;35.64;22.61
15670;BME280;18524;45.190;5.732;2022-07-21T15:57:32;99116.69;;;35.56;23.47
15670;BME280;18524;45.190;5.732;2022-07-21T16:02:23;99105.59;;;35.47;23.29
15670;BME280;18524;45.190;5.732;2022-07-21T16:07:14;99099.16;;;35.38;22.95
15670;BME280;18524;45.190;5.732;2022-07-21T16:12:06;99089.38;;;35.27;22.88
15670;BME280;18524;45.190;5.732;2022-07-21T16:16:57;99085.00;;;35.36;24.21
15670;BME280;18524;45.190;5.732;2022-07-21T16:21:48;99089.44;;;35.22;23.50
15670;BME280;18524;45.190;5.732;2022-07-21T16:26:39;99081.31;;;35.17;23.92
15670;BME280;18524;45.190;5.732;2022-07-21T16:31:29;99089.00;;;35.09;23.40
15670;BME280;18524;45.190;5.732;2022-07-21T16:36:20;99081.41;;;35.06;23.52
15670;BME280;18524;45.190;5.732;2022-07-21T16:41:10;99079.63;;;34.87;23.49
15670;BME280;18524;45.190;5.732;2022-07-21T16:46:00;99079.41;;;34.78;24.13
15670;BME280;18524;45.190;5.732;2022-07-21T16:50:51;99074.50;;;34.75;23.79
15670;BME280;18524;45.190;5.732;2022-07-21T16:55:42;99075.13;;;34.67;23.91
15670;BME280;18524;45.190;5.732;2022-07-21T17:00:32;99083.91;;;34.59;23.68
15670;BME280;18524;45.190;5.732;2022-07-21T17:05:23;99076.53;;;34.59;25.25
15670;BME280;18524;45.190;5.732;2022-07-21T17:10:13;99072.44;;;34.57;24.26
15670;BME280;18524;45.190;5.732;2022-07-21T17:15:04;99072.75;;;34.50;23.82
15670;BME280;18524;45.190;5.732;2022-07-21T17:19:55;99071.47;;;34.42;24.10
15670;BME280;18524;45.190;5.732;2022-07-21T17:24:45;99075.88;;;34.28;24.66
15670;BME280;18524;45.190;5.732;2022-07-21T17:29:36;99062.25;;;34.28;25.15
15670;BME280;18524;45.190;5.732;2022-07-21T17:34:26;99073.19;;;34.18;25.26
15670;BME280;18524;45.190;5.732;2022-07-21T17:39:17;99072.66;;;34.16;25.96
15670;BME280;18524;45.190;5.732;2022-07-21T17:44:07;99078.13;;;34.06;25.72
15670;BME280;18524;45.190;5.732;2022-07-21T17:48:58;99085.81;;;33.94;26.11
15670;BME280;18524;45.190;5.732;2022-07-21T17:53:48;99083.63;;;34.01;26.61
15670;BME280;18524;45.190;5.732;2022-07-21T17:58:39;99077.09;;;33.81;25.86
15670;BME280;18524;45.190;5.732;2022-07-21T18:03:35;99086.91;;;33.77;25.45
15670;BME280;18524;45.190;5.732;2022-07-21T18:08:26;99078.78;;;33.72;25.86
15670;BME280;18524;45.190;5.732;2022-07-21T18:13:16;99087.28;;;33.50;25.95
15670;BME280;18524;45.190;5.732;2022-07-21T18:18:07;99087.00;;;33.42;26.04
15670;BME280;18524;45.190;5.732;2022-07-21T18:22:57;99075.59;;;33.35;27.54
15670;BME280;18524;45.190;5.732;2022-07-21T18:27:48;99081.81;;;33.30;26.49
15670;BME280;18524;45.190;5.732;2022-07-21T18:32:38;99083.72;;;33.24;27.23
15670;BME280;18524;45.190;5.732;2022-07-21T18:37:29;99087.25;;;33.00;27.55
15670;BME280;18524;45.190;5.732;2022-07-21T18:42:19;99086.44;;;32.99;27.60
15670;BME280;18524;45.190;5.732;2022-07-21T18:47:09;99095.94;;;32.91;28.09
15670;BME280;18524;45.190;5.732;2022-07-21T18:52:00;99083.19;;;32.82;27.38
15670;BME280;18524;45.190;5.732;2022-07-21T18:56:51;99094.78;;;32.67;27.96
15670;BME280;18524;45.190;5.732;2022-07-21T19:01:41;99107.56;;;32.61;28.63
15670;BME280;18524;45.190;5.732;2022-07-21T19:06:32;99105.34;;;32.48;28.72
15670;BME280;18524;45.190;5.732;2022-07-21T19:11:23;99114.84;;;32.41;28.05
15670;BME280;18524;45.190;5.732;2022-07-21T19:16:13;99116.41;;;32.26;28.69
15670;BME280;18524;45.190;5.732;2022-07-21T19:21:04;99123.41;;;32.22;28.85
15670;BME280;18524;45.190;5.732;2022-07-21T19:25:54;99125.28;;;32.17;29.11
15670;BME280;18524;45.190;5.732;2022-07-21T19:30:45;99124.47;;;32.16;29.00
15670;BME280;18524;45.190;5.732;2022-07-21T19:35:35;99139.34;;;31.98;29.15
15670;BME280;18524;45.190;5.732;2022-07-21T19:40:26;99141.72;;;31.95;28.90
15670;BME280;18524;45.190;5.732;2022-07-21T19:45:18;99137.56;;;31.77;28.87
15670;BME280;18524;45.190;5.732;2022-07-21T19:50:09;99141.06;;;31.73;29.80
15670;BME280;18524;45.190;5.732;2022-07-21T19:55:00;99153.81;;;31.72;29.07
15670;BME280;18524;45.190;5.732;2022-07-21T19:59:51;99157.97;;;31.53;29.74
15670;BME280;18524;45.190;5.732;2022-07-21T20:04:41;99154.41;;;31.47;30.27
15670;BME280;18524;45.190;5.732;2022-07-21T20:09:31;99160.66;;;31.48;30.31
15670;BME280;18524;45.190;5.732;2022-07-21T20:14:22;99161.69;;;31.41;30.09
15670;BME280;18524;45.190;5.732;2022-07-21T20:19:12;99169.25;;;31.39;31.28
15670;BME280;18524;45.190;5.732;2022-07-21T20:24:03;99162.84;;;31.19;30.43
15670;BME280;18524;45.190;5.732;2022-07-21T20:28:53;99163.38;;;31.21;31.21
15670;BME280;18524;45.190;5.732;2022-07-21T20:33:44;99160.63;;;31.16;31.40
15670;BME280;18524;45.190;5.732;2022-07-21T20:38:34;99171.31;;;31.00;31.66
15670;BME280;18524;45.190;5.732;2022-07-21T20:43:25;99167.06;;;31.09;32.73
15670;BME280;18524;45.190;5.732;2022-07-21T20:48:15;99186.28;;;31.08;31.57
15670;BME280;18524;45.190;5.732;2022-07-21T20:53:07;99179.41;;;30.95;31.43
15670;BME280;18524;45.190;5.732;2022-07-21T20:57:57;99184.75;;;30.90;31.18
15670;BME280;18524;45.190;5.732;2022-07-21T21:02:50;99187.16;;;30.87;31.71
15670;BME280;18524;45.190;5.732;2022-07-21T21:07:40;99184.63;;;30.80;31.49
15670;BME280;18524;45.190;5.732;2022-07-21T21:12:31;99189.06;;;30.64;31.77
15670;BME280;18524;45.190;5.732;2022-07-21T21:17:21;99190.41;;;30.62;32.07
15670;BME280;18524;45.190;5.732;2022-07-21T21:22:12;99193.66;;;30.64;31.99
15670;BME280;18524;45.190;5.732;2022-07-21T21:27:02;99201.38;;;30.55;31.98
15670;BME280;18524;45.190;5.732;2022-07-21T21:31:52;99198.88;;;30.48;31.96
15670;BME280;18524;45.190;5.732;2022-07-21T21:36:43;99206.75;;;30.50;31.92
15670;BME280;18524;45.190;5.732;2022-07-21T21:41:33;99200.34;;;30.39;32.30
15670;BME280;18524;45.190;5.732;2022-07-21T21:46:24;99214.91;;;30.33;32.23
15670;BME280;18524;45.190;5.732;2022-07-21T21:51:14;99214.34;;;30.31;33.00
15670;BME280;18524;45.190;5.732;2022-07-21T21:56:04;99209.44;;;30.28;32.95
15670;BME280;18524;45.190;5.732;2022-07-21T22:00:55;99216.09;;;30.21;33.47
15670;BME280;18524;45.190;5.732;2022-07-21T22:05:46;99213.22;;;30.10;33.49
15670;BME280;18524;45.190;5.732;2022-07-21T22:10:36;99209.53;;;30.00;33.54
15670;BME280;18524;45.190;5.732;2022-07-21T22:15:27;99214.06;;;29.77;34.34
15670;BME280;18524;45.190;5.732;2022-07-21T22:20:17;99222.16;;;29.61;34.38
15670;BME280;18524;45.190;5.732;2022-07-21T22:25:09;99224.72;;;29.50;34.72
15670;BME280;18524;45.190;5.732;2022-07-21T22:30:00;99225.03;;;29.54;34.65
15670;BME280;18524;45.190;5.732;2022-07-21T22:34:51;99219.31;;;29.50;34.89
15670;BME280;18524;45.190;5.732;2022-07-21T22:39:41;99222.38;;;29.42;34.52
15670;BME280;18524;45.190;5.732;2022-07-21T22:44:32;99221.22;;;29.38;34.66
15670;BME280;18524;45.190;5.732;2022-07-21T22:49:22;99222.75;;;29.34;35.05
15670;BME280;18524;45.190;5.732;2022-07-21T22:54:13;99224.97;;;29.20;35.13
15670;BME280;18524;45.190;5.732;2022-07-21T22:59:03;99216.44;;;29.12;35.27
15670;BME280;18524;45.190;5.732;2022-07-21T23:03:53;99218.06;;;29.13;34.97
15670;BME280;18524;45.190;5.732;2022-07-21T23:08:44;99224.53;;;29.12;35.08
15670;BME280;18524;45.190;5.732;2022-07-21T23:13:34;99218.66;;;29.15;36.35
15670;BME280;18524;45.190;5.732;2022-07-21T23:18:24;99213.41;;;29.08;35.31
15670;BME280;18524;45.190;5.732;2022-07-21T23:23:15;99216.91;;;29.09;35.23
15670;BME280;18524;45.190;5.732;2022-07-21T23:28:06;99217.72;;;29.09;35.12
15670;BME280;18524;45.190;5.732;2022-07-21T23:32:56;99221.97;;;29.05;35.01
15670;BME280;18524;45.190;5.732;2022-07-21T23:37:47;99228.31;;;28.99;35.15
15670;BME280;18524;45.190;5.732;2022-07-21T23:42:37;99221.44;;;28.91;35.60
15670;BME280;18524;45.190;5.732;2022-07-21T23:47:28;99221.34;;;28.86;35.57
15670;BME280;18524;45.190;5.732;2022-07-21T23:52:18;99231.06;;;28.87;35.58
15670;BME280;18524;45.190;5.732;2022-07-21T23:57:09;99226.50;;;28.88;36.04
